Jonesville, North Carolina
Current Conditions -  °F | °C
As of 3:55 AM on Wednesday 26 Nov 2014 (Local Time) from KUKF Reporting Station
Moderate Rain Moderate Rain  
Wind Chill: 41°   Ceiling: 4900
Heat Index: 41°   Visibility: 4mi
Dew Point: 41°   Wind: 0mph
Humidity: 100%   Direction: NA
Pressure: 30.02"   Gusts: NA
Location:  36.24°N, 80.84°W
Report Text: KUKF 260855Z AUTO 00000KT 4SM RA OVC049 05/05 A3002 RMK AO2 P0014
Loading
Personal Weather Stations






























Interactive Weather Map New forecast layout! Learn more

10-Day Weather Forecast

Advertisements
Track Severe Weather on mobile